createdAt,value
2018-06-17T00:00:48.371Z,92.70
2018-06-17T00:03:16.553Z,93.00
2018-06-17T00:05:45.118Z,93.00
2018-06-17T00:08:13.338Z,93.40
2018-06-17T00:10:41.563Z,93.20
2018-06-17T00:13:10.098Z,93.60
2018-06-17T00:15:38.871Z,94.00
2018-06-17T00:18:08.138Z,94.00
2018-06-17T00:20:36.636Z,94.30
2018-06-17T00:23:04.867Z,94.50
2018-06-17T00:25:33.406Z,94.60
2018-06-17T00:28:02.065Z,94.80
2018-06-17T00:30:30.903Z,95.00
2018-06-17T00:32:59.438Z,94.70
2018-06-17T00:35:27.991Z,95.20
2018-06-17T00:37:56.519Z,95.70
2018-06-17T00:40:25.145Z,95.60
2018-06-17T00:42:53.358Z,95.70
2018-06-17T00:45:21.639Z,95.50
2018-06-17T00:47:50.030Z,96.00
2018-06-17T00:50:18.500Z,95.70
2018-06-17T00:52:47.142Z,96.10
2018-06-17T00:57:48.095Z,96.20
2018-06-17T01:00:16.411Z,96.00
2018-06-17T01:02:45.875Z,96.60
2018-06-17T01:05:14.668Z,96.60
2018-06-17T01:07:43.357Z,96.60
2018-06-17T01:10:11.934Z,97.00
2018-06-17T01:12:40.510Z,97.50
2018-06-17T01:15:08.928Z,97.20
2018-06-17T01:17:37.574Z,97.10
2018-06-17T01:20:06.319Z,97.50
2018-06-17T01:22:35.164Z,98.10
2018-06-17T01:25:03.365Z,98.30
2018-06-17T01:27:31.634Z,98.20
2018-06-17T01:30:00.250Z,98.30
2018-06-17T01:32:28.947Z,98.70
2018-06-17T01:34:57.792Z,98.90
2018-06-17T01:37:27.444Z,99.20
2018-06-17T01:39:55.678Z,99.70
2018-06-17T01:42:24.343Z,99.90
2018-06-17T01:44:53.592Z,99.90
2018-06-17T01:47:22.162Z,99.90
2018-06-17T01:49:50.731Z,99.90
2018-06-17T01:52:18.997Z,99.90
2018-06-17T01:54:47.277Z,99.90
2018-06-17T01:57:15.580Z,99.90
2018-06-17T01:59:43.814Z,99.90
2018-06-17T02:02:12.211Z,99.90
2018-06-17T02:04:45.882Z,99.90
2018-06-17T02:07:20.128Z,99.90
2018-06-17T02:09:53.715Z,99.90
2018-06-17T02:12:21.975Z,99.90
2018-06-17T02:14:56.924Z,99.90
2018-06-17T02:17:26.463Z,99.90
2018-06-17T02:19:55.730Z,99.90
2018-06-17T02:22:24.979Z,99.90
2018-06-17T02:24:53.238Z,99.90
2018-06-17T02:27:22.014Z,99.90
2018-06-17T02:29:50.542Z,99.90
2018-06-17T02:32:19.287Z,99.90
2018-06-17T02:34:47.512Z,99.90
2018-06-17T02:37:16.554Z,99.90
2018-06-17T02:39:44.819Z,99.90
2018-06-17T02:42:13.058Z,99.90
2018-06-17T02:44:41.699Z,99.90
2018-06-17T02:47:15.426Z,99.90
2018-06-17T02:49:45.950Z,99.90
2018-06-17T02:52:20.095Z,99.90
2018-06-17T02:54:48.813Z,99.90
2018-06-17T02:57:18.638Z,99.90
2018-06-17T02:59:47.064Z,99.90
2018-06-17T03:02:16.002Z,99.90
2018-06-17T03:04:44.518Z,99.90
2018-06-17T03:07:13.375Z,99.90
2018-06-17T03:09:42.019Z,99.90
2018-06-17T03:12:10.674Z,99.90
2018-06-17T03:14:38.917Z,99.90
2018-06-17T03:17:07.449Z,99.90
2018-06-17T03:19:35.946Z,99.90
2018-06-17T03:22:04.182Z,99.90
2018-06-17T03:24:38.244Z,99.90
2018-06-17T03:27:11.794Z,99.90
2018-06-17T03:29:51.663Z,99.90
2018-06-17T03:32:25.264Z,99.90
2018-06-17T03:34:59.082Z,99.90
2018-06-17T03:37:27.694Z,99.90
2018-06-17T03:39:56.157Z,99.90
2018-06-17T03:42:24.443Z,99.90
2018-06-17T03:44:53.305Z,99.90
2018-06-17T03:47:21.583Z,99.90
2018-06-17T03:49:49.819Z,99.90
2018-06-17T03:52:18.422Z,99.90
2018-06-17T03:54:47.067Z,99.90
2018-06-17T03:57:15.923Z,99.90
2018-06-17T03:59:44.195Z,99.90
2018-06-17T04:02:12.851Z,99.90
2018-06-17T04:04:46.571Z,99.90
2018-06-17T04:07:15.190Z,99.90
2018-06-17T04:09:43.793Z,99.90
2018-06-17T04:12:12.407Z,99.90
2018-06-17T04:14:40.770Z,99.90
2018-06-17T04:17:15.296Z,99.90
2018-06-17T04:19:45.527Z,99.90
2018-06-17T04:22:14.104Z,99.90
2018-06-17T04:24:42.368Z,99.90
2018-06-17T04:27:10.962Z,99.90
2018-06-17T04:29:39.252Z,99.90
2018-06-17T04:32:07.868Z,99.90
2018-06-17T04:34:36.406Z,99.90
2018-06-17T04:37:05.154Z,99.90
2018-06-17T04:39:33.435Z,99.90
2018-06-17T04:42:02.102Z,99.90
2018-06-17T04:44:30.469Z,99.90
2018-06-17T04:46:59.270Z,99.90
2018-06-17T04:49:27.579Z,99.90
2018-06-17T04:51:56.634Z,99.90
2018-06-17T04:54:25.297Z,99.90
2018-06-17T04:56:53.967Z,99.90
2018-06-17T04:59:22.727Z,99.90
2018-06-17T05:01:51.082Z,99.90
2018-06-17T05:04:19.325Z,99.90
2018-06-17T05:06:47.599Z,99.90
2018-06-17T05:11:44.665Z,99.90
2018-06-17T05:14:12.915Z,99.90
2018-06-17T05:16:41.290Z,99.90
2018-06-17T05:19:10.035Z,99.90
2018-06-17T05:21:38.431Z,99.90
2018-06-17T05:24:06.699Z,99.90
2018-06-17T05:26:35.039Z,99.90
2018-06-17T05:29:04.230Z,99.90
2018-06-17T05:31:32.852Z,99.90
2018-06-17T05:34:01.525Z,99.90
2018-06-17T05:36:29.822Z,99.90
2018-06-17T05:38:58.323Z,99.90
2018-06-17T05:41:26.670Z,99.90
2018-06-17T05:43:55.262Z,99.90
2018-06-17T05:46:23.830Z,99.90
2018-06-17T05:48:52.067Z,99.90
2018-06-17T05:51:20.383Z,99.90
2018-06-17T05:53:48.705Z,99.90
2018-06-17T05:56:17.409Z,99.90
2018-06-17T05:58:45.653Z,99.90
2018-06-17T06:01:13.950Z,99.90
2018-06-17T06:03:42.270Z,99.90
2018-06-17T06:08:38.589Z,99.90
2018-06-17T06:11:06.873Z,99.90
2018-06-17T06:13:35.084Z,99.90
2018-06-17T06:16:03.727Z,99.90
2018-06-17T06:18:32.155Z,99.90
2018-06-17T06:21:00.762Z,99.90
2018-06-17T06:23:29.583Z,99.90
2018-06-17T06:25:58.783Z,99.90
2018-06-17T06:28:27.646Z,99.90
2018-06-17T06:30:56.899Z,99.90
2018-06-17T06:33:25.155Z,99.90
2018-06-17T06:35:54.066Z,99.90
2018-06-17T06:38:22.346Z,99.90
2018-06-17T06:40:50.931Z,99.90
2018-06-17T06:43:19.839Z,99.90
2018-06-17T06:45:48.080Z,99.90
2018-06-17T06:48:16.650Z,99.90
2018-06-17T06:50:45.128Z,99.90
2018-06-17T06:53:13.360Z,99.90
2018-06-17T06:55:41.957Z,99.90
2018-06-17T06:58:10.222Z,99.90
2018-06-17T07:00:38.762Z,99.90
2018-06-17T07:03:18.483Z,99.90
2018-06-17T07:05:58.118Z,99.90
2018-06-17T07:08:37.862Z,99.90
2018-06-17T07:11:06.493Z,99.90
2018-06-17T07:13:35.084Z,99.90
2018-06-17T07:16:14.777Z,99.90
2018-06-17T07:18:42.989Z,99.90
2018-06-17T07:21:11.430Z,99.90
2018-06-17T07:23:39.995Z,99.90
2018-06-17T07:26:32.111Z,99.90
2018-06-17T07:29:12.256Z,99.90
2018-06-17T07:34:09.414Z,99.90
2018-06-17T07:36:38.103Z,99.90
2018-06-17T07:39:16.418Z,99.70
2018-06-17T07:41:45.967Z,99.30
2018-06-17T07:44:14.495Z,99.00
2018-06-17T07:46:43.305Z,98.60
2018-06-17T07:49:36.817Z,98.40
2018-06-17T07:52:17.669Z,98.30
2018-06-17T07:54:46.571Z,97.70
2018-06-17T07:57:16.366Z,97.80
2018-06-17T07:59:45.018Z,96.80
2018-06-17T08:02:14.158Z,96.40
2018-06-17T08:04:42.427Z,96.30
2018-06-17T08:07:11.071Z,96.10
2018-06-17T08:09:39.599Z,95.30
2018-06-17T08:12:09.678Z,95.50
2018-06-17T08:14:37.980Z,95.30
2018-06-17T08:17:06.784Z,94.00
2018-06-17T08:19:35.063Z,92.60
2018-06-17T08:22:03.718Z,91.00
2018-06-17T08:24:32.706Z,91.10
2018-06-17T08:27:01.330Z,91.90
2018-06-17T08:29:30.116Z,91.10
2018-06-17T08:31:58.438Z,92.00
2018-06-17T08:34:27.030Z,90.20
2018-06-17T08:36:55.575Z,90.40
2018-06-17T08:39:24.691Z,89.50
2018-06-17T08:41:52.967Z,87.80
2018-06-17T08:44:22.028Z,86.10
2018-06-17T08:46:51.161Z,86.10
2018-06-17T08:49:20.270Z,85.20
2018-06-17T08:51:49.105Z,84.10
2018-06-17T08:54:17.678Z,84.60
2018-06-17T08:56:45.870Z,84.10
2018-06-17T08:59:14.056Z,84.00
2018-06-17T09:01:43.136Z,77.40
2018-06-17T09:04:12.016Z,76.40
2018-06-17T09:06:41.746Z,79.40
2018-06-17T09:09:11.407Z,75.90
2018-06-17T09:11:39.709Z,72.50
2018-06-17T09:14:07.970Z,70.40
2018-06-17T09:16:37.160Z,70.90
2018-06-17T09:19:05.460Z,70.50
2018-06-17T09:21:33.755Z,68.80
2018-06-17T09:24:02.156Z,67.60
2018-06-17T09:26:30.373Z,65.20
2018-06-17T09:28:58.943Z,65.70
2018-06-17T09:31:27.181Z,62.50
2018-06-17T09:33:55.462Z,60.00
2018-06-17T09:36:23.697Z,59.60
2018-06-17T09:41:19.974Z,55.20
2018-06-17T09:43:48.211Z,53.30
2018-06-17T09:46:16.550Z,53.60
2018-06-17T09:48:44.790Z,51.30
2018-06-17T09:51:13.026Z,51.10
2018-06-17T09:56:09.327Z,49.60
2018-06-17T09:58:37.618Z,46.70
2018-06-17T10:01:06.117Z,42.30
2018-06-17T10:03:34.611Z,40.90
2018-06-17T10:06:03.251Z,41.00
2018-06-17T10:08:32.144Z,40.90
2018-06-17T10:11:04.432Z,38.20
2018-06-17T10:13:35.203Z,37.60
2018-06-17T10:16:03.558Z,38.30
2018-06-17T10:18:32.414Z,38.90
2018-06-17T10:21:00.976Z,37.70
2018-06-17T10:23:29.235Z,37.60
2018-06-17T10:25:57.582Z,36.30
2018-06-17T10:28:27.018Z,34.40
2018-06-17T10:30:56.410Z,33.30
2018-06-17T10:33:24.686Z,35.80
2018-06-17T10:35:53.541Z,37.60
2018-06-17T10:38:22.000Z,41.30
2018-06-17T10:40:50.310Z,42.90
2018-06-17T10:43:22.499Z,44.10
2018-06-17T10:45:50.935Z,44.30
2018-06-17T10:48:19.191Z,45.10
2018-06-17T10:50:47.416Z,45.00
2018-06-17T10:53:15.743Z,44.90
2018-06-17T10:55:44.057Z,45.10
2018-06-17T10:58:12.359Z,45.60
2018-06-17T11:00:40.770Z,47.00
2018-06-17T11:05:37.808Z,48.10
2018-06-17T11:08:06.137Z,48.70
2018-06-17T11:10:34.426Z,48.40
2018-06-17T11:13:03.130Z,49.10
2018-06-17T11:15:31.342Z,49.40
2018-06-17T11:17:59.615Z,50.00
2018-06-17T11:20:28.314Z,49.20
2018-06-17T11:22:56.556Z,47.40
2018-06-17T11:25:24.781Z,48.00
2018-06-17T11:27:53.118Z,49.00
2018-06-17T11:30:21.391Z,48.40
2018-06-17T11:32:50.222Z,47.50
2018-06-17T11:35:18.433Z,47.40
2018-06-17T11:37:46.744Z,49.10
2018-06-17T11:40:14.998Z,50.40
2018-06-17T11:42:43.382Z,50.80
2018-06-17T11:45:11.720Z,50.10
2018-06-17T11:47:40.043Z,49.70
2018-06-17T11:50:08.381Z,49.50
2018-06-17T11:52:36.654Z,48.70
2018-06-17T11:55:05.271Z,48.50
2018-06-17T11:57:33.554Z,46.70
2018-06-17T12:00:01.836Z,46.70
2018-06-17T12:02:30.434Z,46.10
2018-06-17T12:04:59.534Z,46.30
2018-06-17T12:07:27.947Z,49.00
2018-06-17T12:09:56.262Z,48.10
2018-06-17T12:12:25.710Z,48.00
2018-06-17T12:14:54.482Z,44.20
2018-06-17T12:17:22.899Z,40.80
2018-06-17T12:19:51.546Z,35.50
2018-06-17T12:22:21.051Z,36.00
2018-06-17T12:24:49.783Z,35.80
2018-06-17T12:27:18.185Z,37.20
2018-06-17T12:29:46.425Z,39.40
2018-06-17T12:32:15.458Z,41.20
2018-06-17T12:34:43.859Z,42.30
2018-06-17T12:37:12.622Z,42.40
2018-06-17T12:39:40.897Z,42.10
2018-06-17T12:42:09.628Z,44.50
2018-06-17T12:44:37.896Z,44.20
2018-06-17T12:47:06.414Z,45.10
2018-06-17T12:49:34.719Z,43.80
2018-06-17T12:52:03.426Z,44.10
2018-06-17T12:54:32.498Z,45.70
2018-06-17T12:57:01.141Z,46.20
2018-06-17T12:59:29.731Z,46.20
2018-06-17T13:01:58.680Z,46.80
2018-06-17T13:04:27.700Z,48.10
2018-06-17T13:06:55.945Z,47.50
2018-06-17T13:09:24.887Z,47.80
2018-06-17T13:11:53.130Z,48.70
2018-06-17T13:14:21.522Z,48.30
2018-06-17T13:16:50.111Z,48.00
2018-06-17T13:19:18.811Z,48.90
2018-06-17T13:24:16.723Z,47.20
2018-06-17T13:26:44.962Z,47.40
2018-06-17T13:29:13.311Z,47.60
2018-06-17T13:31:42.028Z,45.40
2018-06-17T13:34:10.322Z,46.60
2018-06-17T13:36:38.882Z,47.40
2018-06-17T13:41:35.586Z,47.60
2018-06-17T13:44:04.723Z,46.60
2018-06-17T13:46:33.207Z,47.40
2018-06-17T13:49:03.070Z,47.00
2018-06-17T13:51:31.805Z,48.70
2018-06-17T13:54:00.512Z,48.20
2018-06-17T13:56:28.822Z,49.60
2018-06-17T13:58:57.062Z,50.80
2018-06-17T14:01:26.196Z,50.90
2018-06-17T14:03:55.942Z,51.00
2018-06-17T14:06:24.370Z,52.30
2018-06-17T14:11:34.070Z,53.20
2018-06-17T14:14:02.317Z,52.10
2018-06-17T14:16:30.550Z,52.40
2018-06-17T14:18:59.234Z,52.70
2018-06-17T14:21:27.703Z,53.50
2018-06-17T14:23:56.022Z,54.00
2018-06-17T14:26:24.655Z,55.00
2018-06-17T14:28:53.804Z,55.40
2018-06-17T14:31:22.497Z,56.70
2018-06-17T14:33:51.506Z,55.80
2018-06-17T14:36:19.760Z,56.00
2018-06-17T14:38:48.801Z,56.30
2018-06-17T14:41:18.256Z,56.60
2018-06-17T14:43:52.053Z,57.20
2018-06-17T14:46:26.183Z,57.50
2018-06-17T14:49:00.051Z,57.90
2018-06-17T14:51:33.583Z,57.40
2018-06-17T14:54:02.175Z,57.30
2018-06-17T14:56:30.490Z,57.80
2018-06-17T14:58:59.711Z,58.40
2018-06-17T15:01:28.469Z,58.90
2018-06-17T15:03:56.739Z,60.00
2018-06-17T15:06:25.766Z,61.50
2018-06-17T15:08:56.727Z,62.00
2018-06-17T15:11:25.014Z,62.80
2018-06-17T15:13:53.295Z,63.00
2018-06-17T15:16:23.026Z,65.10
2018-06-17T15:18:52.519Z,67.50
2018-06-17T15:21:23.047Z,66.90
2018-06-17T15:23:52.653Z,65.90
2018-06-17T15:26:22.547Z,66.60
2018-06-17T15:28:52.810Z,66.80
2018-06-17T15:31:30.891Z,66.70
2018-06-17T15:34:04.914Z,66.90
2018-06-17T15:36:40.377Z,67.20
2018-06-17T15:39:14.263Z,66.30
2018-06-17T15:41:42.550Z,66.80
2018-06-17T15:44:12.435Z,66.80
2018-06-17T15:46:51.096Z,67.00
2018-06-17T15:49:19.963Z,66.80
2018-06-17T15:51:49.196Z,67.30
2018-06-17T15:54:18.869Z,67.80
2018-06-17T15:56:48.059Z,68.10
2018-06-17T15:59:16.959Z,68.50
2018-06-17T16:01:45.167Z,68.70
2018-06-17T16:04:14.185Z,69.50
2018-06-17T16:06:46.248Z,69.60
2018-06-17T16:09:15.279Z,70.10
2018-06-17T16:11:48.957Z,70.20
2018-06-17T16:15:23.360Z,70.70
2018-06-17T16:17:57.055Z,71.80
2018-06-17T16:20:31.276Z,72.80
2018-06-17T16:23:00.214Z,73.60
2018-06-17T16:25:28.606Z,74.40
2018-06-17T16:30:25.091Z,76.10
2018-06-17T16:32:53.668Z,76.60
2018-06-17T16:35:22.445Z,77.00
2018-06-17T16:37:50.745Z,77.60
2018-06-17T16:40:19.425Z,78.60
2018-06-17T16:42:49.001Z,79.00
2018-06-17T16:45:17.560Z,78.50
2018-06-17T16:47:45.846Z,79.00
2018-06-17T16:50:14.936Z,79.50
2018-06-17T16:52:48.594Z,80.50
2018-06-17T16:55:22.810Z,81.30
2018-06-17T16:57:56.629Z,78.60
2018-06-17T17:00:24.978Z,81.40
2018-06-17T17:02:53.230Z,81.10
2018-06-17T17:05:21.851Z,81.90
2018-06-17T17:07:50.194Z,82.30
2018-06-17T17:10:19.958Z,81.40
2018-06-17T17:12:48.318Z,81.40
2018-06-17T17:15:17.966Z,82.80
2018-06-17T17:17:47.400Z,82.80
2018-06-17T17:22:44.111Z,85.40
2018-06-17T17:25:12.367Z,85.40
2018-06-17T17:27:40.713Z,86.50
2018-06-17T17:32:42.838Z,88.40
2018-06-17T17:35:16.940Z,88.50
2018-06-17T17:37:50.802Z,89.10
2018-06-17T17:40:25.120Z,89.70
2018-06-17T17:42:53.398Z,89.80
2018-06-17T17:45:23.511Z,90.40
2018-06-17T17:47:52.245Z,88.80
2018-06-17T17:50:20.538Z,90.80
2018-06-17T17:52:48.826Z,90.80
2018-06-17T17:55:17.602Z,90.50
2018-06-17T17:57:45.887Z,90.00
2018-06-17T18:00:15.382Z,88.30
2018-06-17T18:02:43.810Z,89.30
2018-06-17T18:05:12.056Z,89.00
2018-06-17T18:07:40.295Z,99.60
2018-06-17T18:10:08.910Z,99.90
2018-06-17T18:12:37.170Z,99.90
2018-06-17T18:15:06.636Z,99.90
2018-06-17T18:17:35.323Z,99.90
2018-06-17T18:20:03.583Z,99.90
2018-06-17T18:22:32.122Z,99.90
2018-06-17T18:25:05.859Z,99.90
2018-06-17T18:27:39.908Z,99.90
2018-06-17T18:30:13.555Z,99.90
2018-06-17T18:32:47.136Z,99.90
2018-06-17T18:35:20.755Z,99.90
2018-06-17T18:37:48.989Z,99.90
2018-06-17T18:40:17.945Z,99.90
2018-06-17T18:42:46.562Z,99.90
2018-06-17T18:45:15.225Z,99.90
2018-06-17T18:47:43.770Z,99.90
2018-06-17T18:50:12.084Z,99.90
2018-06-17T18:52:40.650Z,99.90
2018-06-17T18:55:22.872Z,99.90
2018-06-17T18:57:51.100Z,99.90
2018-06-17T19:00:19.323Z,99.90
2018-06-17T19:02:47.751Z,99.90
2018-06-17T19:05:16.077Z,99.90
2018-06-17T19:07:52.569Z,99.90
2018-06-17T19:10:26.420Z,99.90
2018-06-17T19:13:00.098Z,99.90
2018-06-17T19:15:35.722Z,99.90
2018-06-17T19:18:08.339Z,99.90
2018-06-17T19:20:37.186Z,99.90
2018-06-17T19:23:06.080Z,99.90
2018-06-17T19:25:34.315Z,99.90
2018-06-17T19:28:02.585Z,99.90
2018-06-17T19:30:30.821Z,99.90
2018-06-17T19:32:59.082Z,99.90
2018-06-17T19:35:27.494Z,99.90
2018-06-17T19:37:55.813Z,99.90
2018-06-17T19:40:24.014Z,99.90
2018-06-17T19:42:52.686Z,99.90
2018-06-17T19:45:21.179Z,99.90
2018-06-17T19:47:49.540Z,99.90
2018-06-17T19:50:23.522Z,99.90
2018-06-17T19:54:00.154Z,99.90
2018-06-17T19:56:33.956Z,99.90
2018-06-17T19:59:08.596Z,99.90
2018-06-17T20:01:37.277Z,99.90
2018-06-17T20:04:05.585Z,99.90
2018-06-17T20:06:34.251Z,99.90
2018-06-17T20:09:02.579Z,99.90
2018-06-17T20:11:31.263Z,99.90
2018-06-17T20:13:59.537Z,99.90
2018-06-17T20:16:28.259Z,99.90
2018-06-17T20:18:57.375Z,99.90
2018-06-17T20:23:54.251Z,99.90
2018-06-17T20:26:22.844Z,99.90
2018-06-17T20:28:51.771Z,99.90
2018-06-17T20:31:20.345Z,99.90
2018-06-17T20:33:54.122Z,99.90
2018-06-17T20:36:27.919Z,99.90
2018-06-17T20:39:01.632Z,99.90
2018-06-17T20:41:35.523Z,99.90
2018-06-17T20:44:03.759Z,99.90
2018-06-17T20:46:32.315Z,99.90
2018-06-17T20:49:00.845Z,99.90
2018-06-17T20:51:29.088Z,99.90
2018-06-17T20:53:57.626Z,99.90
2018-06-17T20:56:26.493Z,99.90
2018-06-17T20:58:55.044Z,99.90
2018-06-17T21:01:23.567Z,99.90
2018-06-17T21:06:20.135Z,99.90
2018-06-17T21:08:48.351Z,99.90
2018-06-17T21:11:16.566Z,99.90
2018-06-17T21:13:44.787Z,99.90
2018-06-17T21:16:13.370Z,99.90
2018-06-17T21:18:47.405Z,99.90
2018-06-17T21:21:21.096Z,99.90
2018-06-17T21:23:54.698Z,99.90
2018-06-17T21:26:28.361Z,99.90
2018-06-17T21:28:56.592Z,99.90
2018-06-17T21:31:25.122Z,99.90
2018-06-17T21:36:21.574Z,99.90
2018-06-17T21:38:49.773Z,99.90
2018-06-17T21:41:18.327Z,99.90
2018-06-17T21:43:46.554Z,99.90
2018-06-17T21:46:15.077Z,99.90
2018-06-17T21:48:43.450Z,99.90
2018-06-17T21:53:39.923Z,99.90
2018-06-17T21:58:41.943Z,99.90
2018-06-17T22:01:10.463Z,99.90
2018-06-17T22:03:39.263Z,99.90
2018-06-17T22:08:42.276Z,99.90
2018-06-17T22:13:49.974Z,99.90
2018-06-17T22:16:23.639Z,99.90
2018-06-17T22:18:51.813Z,99.90
2018-06-17T22:21:20.051Z,99.90
2018-06-17T22:23:48.264Z,99.90
2018-06-17T22:26:16.683Z,99.90
2018-06-17T22:28:45.267Z,99.90
2018-06-17T22:33:42.066Z,99.90
2018-06-17T22:36:10.246Z,99.90
2018-06-17T22:38:38.792Z,99.90
2018-06-17T22:41:06.980Z,99.90
2018-06-17T22:43:35.178Z,99.90
2018-06-17T22:46:05.166Z,99.90
2018-06-17T22:48:33.472Z,99.90
2018-06-17T22:51:01.661Z,99.90
2018-06-17T22:53:41.360Z,99.90
2018-06-17T22:58:49.115Z,99.90
2018-06-17T23:01:22.733Z,99.90
2018-06-17T23:03:56.290Z,99.90
2018-06-17T23:06:29.819Z,99.90
2018-06-17T23:09:03.360Z,99.90
2018-06-17T23:11:32.602Z,99.90
2018-06-17T23:14:00.906Z,99.90
2018-06-17T23:16:29.732Z,99.90
2018-06-17T23:18:57.974Z,99.90
2018-06-17T23:21:26.234Z,99.90
2018-06-17T23:23:54.763Z,99.90
2018-06-17T23:26:22.987Z,99.90
2018-06-17T23:28:51.234Z,99.90
2018-06-17T23:31:19.472Z,99.90
2018-06-17T23:33:48.018Z,99.90
2018-06-17T23:36:16.202Z,99.90
2018-06-17T23:38:44.429Z,99.90
2018-06-17T23:41:15.561Z,99.90
2018-06-17T23:43:44.728Z,99.90
2018-06-17T23:46:18.133Z,99.90
2018-06-17T23:48:51.721Z,99.90
2018-06-17T23:51:25.390Z,99.90
2018-06-17T23:53:59.197Z,99.90
2018-06-17T23:56:27.386Z,99.90
2018-06-17T23:58:55.934Z,99.90
